createdAt,value
2017-11-24T00:01:22.092Z,2.60
2017-11-24T00:03:51.719Z,2.95
2017-11-24T00:06:18.642Z,2.20
2017-11-24T00:08:45.553Z,1.80
2017-11-24T00:11:12.474Z,2.55
2017-11-24T00:13:39.395Z,2.42
2017-11-24T00:16:06.326Z,2.00
2017-11-24T00:18:33.234Z,2.50
2017-11-24T00:21:00.151Z,3.45
2017-11-24T00:23:27.073Z,1.20
2017-11-24T00:25:53.985Z,2.60
2017-11-24T00:28:21.987Z,2.65
2017-11-24T00:30:48.911Z,2.35
2017-11-24T00:33:16.751Z,2.60
2017-11-24T00:35:43.690Z,2.92
2017-11-24T00:38:10.590Z,2.47
2017-11-24T00:40:37.510Z,3.28
2017-11-24T00:43:05.177Z,2.92
2017-11-24T00:45:32.862Z,2.17
2017-11-24T00:47:59.785Z,3.22
2017-11-24T00:50:26.718Z,2.37
2017-11-24T00:52:53.643Z,2.00
2017-11-24T00:55:20.584Z,3.80
2017-11-24T00:57:47.492Z,3.12
2017-11-24T01:00:14.393Z,2.40
2017-11-24T01:02:42.070Z,2.75
2017-11-24T01:05:09.024Z,2.50
2017-11-24T01:07:35.937Z,2.97
2017-11-24T01:10:03.651Z,2.97
2017-11-24T01:12:31.577Z,2.28
2017-11-24T01:14:59.258Z,2.90
2017-11-24T01:17:26.165Z,1.95
2017-11-24T01:19:54.044Z,1.80
2017-11-24T01:22:21.722Z,2.67
2017-11-24T01:24:48.662Z,2.10
2017-11-24T01:27:16.456Z,2.60
2017-11-24T01:29:43.382Z,2.47
2017-11-24T01:32:10.301Z,2.67
2017-11-24T01:34:38.009Z,3.30
2017-11-24T01:37:04.922Z,2.53
2017-11-24T01:39:31.850Z,2.40
2017-11-24T01:41:59.541Z,2.40
2017-11-24T01:44:26.459Z,3.22
2017-11-24T01:46:54.135Z,2.70
2017-11-24T01:49:22.043Z,2.03
2017-11-24T01:51:48.946Z,2.53
2017-11-24T01:54:15.878Z,2.47
2017-11-24T01:56:44.476Z,2.15
2017-11-24T01:59:11.399Z,2.90
2017-11-24T02:01:38.302Z,2.20
2017-11-24T02:04:05.239Z,2.50
2017-11-24T02:06:32.166Z,3.50
2017-11-24T02:08:59.093Z,3.42
2017-11-24T02:11:26.760Z,3.78
2017-11-24T02:13:55.635Z,4.12
2017-11-24T02:16:25.681Z,3.62
2017-11-24T02:18:52.596Z,2.62
2017-11-24T02:21:20.284Z,3.00
2017-11-24T02:23:47.197Z,4.95
2017-11-24T02:26:14.865Z,3.28
2017-11-24T02:28:42.549Z,3.50
2017-11-24T02:31:09.476Z,3.47
2017-11-24T02:33:37.170Z,3.30
2017-11-24T02:36:04.373Z,3.00
2017-11-24T02:38:32.056Z,3.92
2017-11-24T02:40:58.960Z,3.05
2017-11-24T02:43:25.885Z,2.15
2017-11-24T02:45:52.802Z,2.37
2017-11-24T02:48:19.736Z,3.12
2017-11-24T02:50:46.638Z,3.45
2017-11-24T02:53:13.570Z,2.65
2017-11-24T02:55:40.771Z,3.08
2017-11-24T02:58:07.690Z,3.30
2017-11-24T03:00:35.538Z,3.42
2017-11-24T03:03:02.443Z,3.12
2017-11-24T03:05:29.373Z,3.60
2017-11-24T03:07:56.277Z,3.12
2017-11-24T03:10:23.190Z,3.67
2017-11-24T03:12:51.509Z,3.28
2017-11-24T03:15:18.438Z,4.60
2017-11-24T03:17:45.347Z,4.65
2017-11-24T03:20:12.285Z,3.65
2017-11-24T03:22:39.189Z,3.05
2017-11-24T03:25:06.098Z,4.78
2017-11-24T03:27:36.593Z,3.78
2017-11-24T03:30:04.299Z,3.47
2017-11-24T03:32:31.229Z,2.97
2017-11-24T03:34:58.147Z,4.35
2017-11-24T03:37:25.078Z,3.10
2017-11-24T03:39:51.980Z,3.53
2017-11-24T03:42:18.906Z,3.22
2017-11-24T03:44:45.823Z,3.30
2017-11-24T03:47:12.739Z,3.30
2017-11-24T03:49:40.413Z,3.15
2017-11-24T03:52:07.349Z,3.72
2017-11-24T03:54:35.029Z,4.40
2017-11-24T03:57:01.955Z,2.87
2017-11-24T03:59:29.633Z,3.42
2017-11-24T04:01:56.562Z,4.30
2017-11-24T04:04:24.236Z,3.37
2017-11-24T04:06:51.190Z,3.90
2017-11-24T04:09:18.102Z,2.78
2017-11-24T04:11:45.793Z,3.33
2017-11-24T04:14:12.691Z,3.45
2017-11-24T04:16:39.623Z,4.15
2017-11-24T04:19:06.546Z,3.12
2017-11-24T04:21:33.454Z,4.97
2017-11-24T04:24:01.135Z,3.70
2017-11-24T04:26:28.049Z,3.60
2017-11-24T04:28:55.725Z,3.55
2017-11-24T04:31:23.427Z,4.03
2017-11-24T04:33:50.337Z,4.22
2017-11-24T04:36:17.285Z,3.42
2017-11-24T04:38:44.195Z,3.40
2017-11-24T04:41:11.127Z,3.22
2017-11-24T04:43:39.017Z,3.62
2017-11-24T04:46:06.738Z,4.55
2017-11-24T04:48:33.664Z,3.08
2017-11-24T04:51:00.596Z,3.80
2017-11-24T04:53:27.521Z,4.20
2017-11-24T04:55:56.219Z,4.68
2017-11-24T04:58:23.127Z,3.53
2017-11-24T05:00:50.075Z,4.90
2017-11-24T05:03:17.945Z,4.05
2017-11-24T05:05:45.643Z,4.90
2017-11-24T05:08:12.565Z,6.68
2017-11-24T05:10:40.282Z,3.53
2017-11-24T05:13:07.196Z,3.35
2017-11-24T05:15:34.132Z,5.47
2017-11-24T05:18:01.970Z,4.35
2017-11-24T05:20:28.911Z,4.60
2017-11-24T05:22:55.822Z,4.10
2017-11-24T05:25:22.750Z,4.35
2017-11-24T05:27:49.662Z,4.65
2017-11-24T05:30:16.645Z,4.65
2017-11-24T05:32:43.596Z,3.70
2017-11-24T05:35:10.514Z,4.00
2017-11-24T05:37:38.370Z,5.05
2017-11-24T05:40:05.292Z,4.97
2017-11-24T05:42:32.983Z,4.60
2017-11-24T05:44:59.939Z,4.43
2017-11-24T05:47:26.860Z,4.60
2017-11-24T05:49:53.784Z,4.75
2017-11-24T05:52:20.716Z,5.35
2017-11-24T05:54:47.634Z,4.45
2017-11-24T05:57:14.563Z,5.30
2017-11-24T05:59:41.475Z,4.70
2017-11-24T06:02:10.181Z,4.65
2017-11-24T06:04:37.084Z,4.25
2017-11-24T06:07:04.022Z,4.93
2017-11-24T06:09:30.947Z,4.70
2017-11-24T06:11:59.501Z,6.05
2017-11-24T06:14:26.409Z,5.43
2017-11-24T06:16:53.617Z,4.68
2017-11-24T06:19:20.537Z,5.40
2017-11-24T06:21:47.456Z,6.65
2017-11-24T06:24:15.138Z,5.82
2017-11-24T06:26:42.063Z,6.37
2017-11-24T06:29:09.756Z,5.18
2017-11-24T06:31:36.689Z,5.85
2017-11-24T06:34:03.646Z,5.35
2017-11-24T06:36:31.600Z,6.10
2017-11-24T06:39:00.594Z,6.10
2017-11-24T06:41:27.588Z,6.25
2017-11-24T06:43:55.540Z,6.55
2017-11-24T06:46:23.482Z,6.25
2017-11-24T06:48:50.413Z,5.53
2017-11-24T06:51:19.116Z,6.30
2017-11-24T06:53:46.046Z,5.90
2017-11-24T06:56:13.732Z,6.47
2017-11-24T06:58:40.647Z,6.65
2017-11-24T07:01:08.375Z,6.20
2017-11-24T07:03:36.279Z,6.28
2017-11-24T07:06:03.240Z,5.37
2017-11-24T07:08:30.162Z,5.47
2017-11-24T07:10:57.113Z,6.15
2017-11-24T07:13:25.798Z,5.57
2017-11-24T07:15:53.504Z,5.75
2017-11-24T07:18:21.181Z,5.55
2017-11-24T07:20:48.119Z,5.68
2017-11-24T07:23:15.020Z,5.10
2017-11-24T07:25:41.954Z,5.10
2017-11-24T07:28:08.882Z,6.75
2017-11-24T07:30:36.595Z,5.62
2017-11-24T07:33:03.510Z,5.45
2017-11-24T07:35:30.446Z,5.03
2017-11-24T07:37:58.153Z,5.93
2017-11-24T07:40:25.141Z,5.95
2017-11-24T07:42:53.839Z,7.03
2017-11-24T07:45:21.579Z,6.93
2017-11-24T07:47:48.514Z,6.53
2017-11-24T07:50:15.468Z,6.85
2017-11-24T07:52:42.399Z,7.07
2017-11-24T07:55:10.351Z,7.62
2017-11-24T07:57:37.268Z,6.85
2017-11-24T08:00:04.642Z,6.15
2017-11-24T08:02:31.582Z,6.05
2017-11-24T08:04:58.863Z,7.68
2017-11-24T08:07:26.096Z,7.35
2017-11-24T08:09:53.021Z,6.20
2017-11-24T08:12:19.936Z,7.72
2017-11-24T08:14:48.633Z,8.05
2017-11-24T08:17:16.318Z,7.40
2017-11-24T08:19:45.199Z,7.53
2017-11-24T08:22:12.125Z,7.00
2017-11-24T08:24:39.056Z,7.00
2017-11-24T08:27:06.781Z,8.02
2017-11-24T08:29:33.711Z,8.48
2017-11-24T08:32:00.626Z,6.62
2017-11-24T08:34:28.335Z,7.07
2017-11-24T08:36:55.275Z,7.18
2017-11-24T08:39:23.196Z,10.05
2017-11-24T08:41:51.881Z,7.50
2017-11-24T08:44:18.818Z,7.20
2017-11-24T08:46:46.492Z,6.72
2017-11-24T08:49:13.419Z,6.78
2017-11-24T08:51:41.125Z,6.78
2017-11-24T08:54:08.070Z,7.47
2017-11-24T08:56:35.005Z,6.78
2017-11-24T08:59:01.930Z,6.95
2017-11-24T09:01:28.878Z,6.65
2017-11-24T09:03:55.797Z,6.65
2017-11-24T09:06:25.422Z,6.20
2017-11-24T09:08:53.121Z,6.53
2017-11-24T09:11:20.058Z,6.57
2017-11-24T09:13:46.992Z,7.90
2017-11-24T09:16:13.967Z,6.15
2017-11-24T09:18:40.888Z,6.65
2017-11-24T09:21:07.897Z,6.50
2017-11-24T09:23:34.854Z,6.80
2017-11-24T09:26:01.865Z,7.50
2017-11-24T09:28:28.873Z,6.82
2017-11-24T09:30:55.973Z,7.40
2017-11-24T09:33:23.801Z,6.68
2017-11-24T09:35:50.872Z,7.45
2017-11-24T09:38:18.205Z,7.00
2017-11-24T09:40:45.140Z,6.90
2017-11-24T09:43:12.122Z,6.05
2017-11-24T09:45:39.044Z,6.60
2017-11-24T09:48:07.110Z,5.40
2017-11-24T09:50:34.078Z,5.82
2017-11-24T09:53:01.059Z,5.75
2017-11-24T09:55:28.031Z,6.07
2017-11-24T09:57:56.006Z,6.85
2017-11-24T10:00:22.982Z,5.03
2017-11-24T10:02:52.569Z,5.28
2017-11-24T10:05:21.295Z,6.40
2017-11-24T10:07:49.537Z,5.25
2017-11-24T10:10:17.264Z,5.90
2017-11-24T10:12:45.288Z,6.40
2017-11-24T10:15:12.213Z,5.85
2017-11-24T10:17:39.142Z,6.10
2017-11-24T10:20:06.056Z,5.00
2017-11-24T10:22:33.976Z,5.60
2017-11-24T10:25:00.885Z,5.18
2017-11-24T10:27:28.822Z,6.15
2017-11-24T10:29:56.822Z,6.35
2017-11-24T10:32:23.751Z,6.43
2017-11-24T10:34:51.546Z,5.30
2017-11-24T10:37:18.621Z,6.62
2017-11-24T10:39:45.539Z,6.28
2017-11-24T10:42:12.466Z,5.45
2017-11-24T10:44:39.394Z,7.12
2017-11-24T10:47:07.305Z,7.20
2017-11-24T10:49:34.232Z,5.45
2017-11-24T10:52:01.184Z,5.47
2017-11-24T10:54:28.083Z,4.78
2017-11-24T10:56:55.793Z,4.95
2017-11-24T10:59:22.705Z,4.82
2017-11-24T11:01:50.554Z,4.50
2017-11-24T11:04:20.166Z,4.75
2017-11-24T11:06:47.911Z,3.92
2017-11-24T11:09:15.807Z,4.37
2017-11-24T11:11:42.747Z,4.35
2017-11-24T11:14:10.452Z,4.90
2017-11-24T11:16:37.390Z,5.07
2017-11-24T11:19:04.303Z,4.68
2017-11-24T11:21:31.236Z,2.97
2017-11-24T11:23:58.923Z,4.00
2017-11-24T11:26:26.813Z,5.35
2017-11-24T11:28:53.717Z,4.40
2017-11-24T11:31:20.629Z,4.95
2017-11-24T11:33:47.572Z,4.15
2017-11-24T11:36:15.416Z,5.90
2017-11-24T11:38:42.385Z,4.00
2017-11-24T11:41:10.277Z,5.30
2017-11-24T11:43:37.977Z,5.15
2017-11-24T11:46:04.885Z,6.32
2017-11-24T11:48:33.600Z,5.90
2017-11-24T11:51:00.527Z,5.30
2017-11-24T11:53:27.456Z,4.85
2017-11-24T11:55:54.373Z,5.72
2017-11-24T11:58:21.311Z,6.60
2017-11-24T12:00:48.234Z,6.57
2017-11-24T12:03:15.164Z,6.43
2017-11-24T12:05:47.431Z,7.07
2017-11-24T12:08:16.366Z,7.05
2017-11-24T12:10:44.254Z,6.60
2017-11-24T12:13:12.870Z,6.93
2017-11-24T12:15:39.805Z,6.32
2017-11-24T12:18:06.758Z,7.70
2017-11-24T12:20:35.545Z,7.57
2017-11-24T12:23:02.482Z,7.87
2017-11-24T12:25:30.334Z,7.00
2017-11-24T12:27:58.036Z,7.62
2017-11-24T12:30:24.950Z,7.95
2017-11-24T12:32:51.872Z,6.72
2017-11-24T12:35:18.790Z,8.10
2017-11-24T12:37:47.472Z,8.80
2017-11-24T12:40:15.381Z,9.60
2017-11-24T12:42:45.010Z,8.27
2017-11-24T12:45:12.132Z,8.75
2017-11-24T12:47:39.826Z,11.15
2017-11-24T12:50:06.779Z,9.38
2017-11-24T12:52:33.712Z,8.07
2017-11-24T12:55:01.543Z,9.35
2017-11-24T12:57:29.440Z,5.55
2017-11-24T12:59:56.345Z,4.47
2017-11-24T13:02:23.262Z,4.07
2017-11-24T13:04:50.174Z,4.20
2017-11-24T13:07:17.102Z,3.35
2017-11-24T13:09:44.986Z,2.97
2017-11-24T13:12:13.896Z,2.55
2017-11-24T13:14:40.814Z,2.90
2017-11-24T13:17:07.775Z,2.70
2017-11-24T13:19:34.703Z,2.67
2017-11-24T13:22:01.627Z,2.22
2017-11-24T13:24:29.312Z,2.50
2017-11-24T13:26:56.246Z,3.12
2017-11-24T13:29:23.927Z,3.00
2017-11-24T13:31:50.872Z,4.20
2017-11-24T13:34:17.803Z,4.90
2017-11-24T13:36:44.742Z,5.10
2017-11-24T13:39:12.556Z,4.43
2017-11-24T13:41:40.386Z,4.18
2017-11-24T13:44:07.283Z,4.32
2017-11-24T13:46:34.263Z,3.92
2017-11-24T13:49:03.151Z,4.12
2017-11-24T13:51:31.831Z,3.70
2017-11-24T13:54:00.449Z,3.70
2017-11-24T13:56:27.374Z,4.25
2017-11-24T13:58:55.240Z,4.95
2017-11-24T14:01:25.487Z,4.15
2017-11-24T14:03:52.400Z,4.55
2017-11-24T14:06:20.292Z,4.78
2017-11-24T14:08:47.214Z,4.30
2017-11-24T14:11:14.290Z,6.07
2017-11-24T14:13:41.220Z,4.45
2017-11-24T14:16:10.069Z,4.32
2017-11-24T14:18:41.614Z,5.57
2017-11-24T14:21:10.246Z,4.25
2017-11-24T14:23:41.761Z,3.35
2017-11-24T14:26:09.458Z,4.03
2017-11-24T14:28:36.367Z,3.12
2017-11-24T14:31:03.343Z,3.55
2017-11-24T14:33:32.207Z,3.25
2017-11-24T14:36:01.917Z,2.60
2017-11-24T14:38:28.834Z,3.12
2017-11-24T14:40:58.794Z,2.97
2017-11-24T14:43:25.710Z,2.60
2017-11-24T14:45:52.643Z,2.72
2017-11-24T14:48:27.314Z,2.30
2017-11-24T14:50:54.258Z,2.83
2017-11-24T14:53:21.170Z,2.30
2017-11-24T14:55:48.884Z,2.55
2017-11-24T14:58:15.865Z,2.30
2017-11-24T15:00:43.761Z,2.25
2017-11-24T15:03:10.679Z,1.92
2017-11-24T15:05:39.605Z,2.08
2017-11-24T15:08:08.457Z,2.30
2017-11-24T15:10:35.383Z,2.50
2017-11-24T15:13:05.949Z,2.37
2017-11-24T15:15:33.654Z,2.22
2017-11-24T15:18:03.957Z,3.15
2017-11-24T15:20:30.914Z,2.00
2017-11-24T15:22:57.823Z,2.72
2017-11-24T15:25:26.527Z,2.60
2017-11-24T15:27:54.349Z,2.58
2017-11-24T15:30:21.290Z,2.95
2017-11-24T15:32:49.203Z,2.62
2017-11-24T15:35:16.882Z,2.85
2017-11-24T15:37:43.776Z,4.32
2017-11-24T15:40:10.690Z,2.20
2017-11-24T15:42:37.599Z,2.40
2017-11-24T15:45:07.303Z,1.98
2017-11-24T15:47:37.018Z,2.25
2017-11-24T15:50:04.089Z,2.05
2017-11-24T15:52:31.001Z,2.53
2017-11-24T15:54:58.701Z,2.30
2017-11-24T15:57:26.646Z,2.83
2017-11-24T15:59:53.635Z,2.92
2017-11-24T16:02:20.563Z,2.47
2017-11-24T16:04:47.492Z,2.90
2017-11-24T16:07:14.495Z,2.55
2017-11-24T16:09:42.482Z,2.60
2017-11-24T16:12:10.157Z,2.55
2017-11-24T16:14:38.432Z,2.65
2017-11-24T16:17:05.344Z,2.97
2017-11-24T16:19:32.281Z,3.47
2017-11-24T16:22:05.227Z,2.95
2017-11-24T16:24:32.166Z,3.50
2017-11-24T16:26:59.084Z,3.12
2017-11-24T16:29:30.233Z,3.37
2017-11-24T16:31:57.914Z,3.62
2017-11-24T16:34:24.879Z,3.90
2017-11-24T16:36:52.795Z,3.85
2017-11-24T16:39:21.481Z,5.18
2017-11-24T16:41:49.150Z,4.75
2017-11-24T16:44:16.080Z,4.90
2017-11-24T16:46:43.942Z,5.00
2017-11-24T16:49:11.659Z,5.47
2017-11-24T16:51:38.571Z,6.95
2017-11-24T16:54:05.518Z,7.40
2017-11-24T16:56:32.442Z,8.70
2017-11-24T16:58:59.372Z,7.20
2017-11-24T17:01:26.306Z,7.75
2017-11-24T17:03:53.718Z,8.80
2017-11-24T17:06:20.638Z,7.97
2017-11-24T17:08:48.328Z,7.05
2017-11-24T17:11:15.239Z,5.65
2017-11-24T17:13:43.937Z,5.72
2017-11-24T17:16:11.596Z,5.45
2017-11-24T17:18:38.537Z,4.20
2017-11-24T17:21:06.236Z,3.70
2017-11-24T17:23:34.174Z,4.00
2017-11-24T17:26:01.086Z,3.70
2017-11-24T17:28:28.005Z,4.55
2017-11-24T17:30:54.930Z,4.20
2017-11-24T17:33:21.840Z,5.75
2017-11-24T17:35:49.722Z,5.60
2017-11-24T17:38:16.662Z,4.45
2017-11-24T17:40:43.595Z,4.70
2017-11-24T17:43:10.682Z,5.30
2017-11-24T17:45:37.590Z,5.82
2017-11-24T17:48:05.285Z,5.75
2017-11-24T17:50:32.200Z,5.93
2017-11-24T17:52:59.909Z,7.20
2017-11-24T17:55:26.861Z,7.20
2017-11-24T17:57:54.800Z,7.85
2017-11-24T18:00:22.669Z,8.20
2017-11-24T18:02:49.602Z,9.30
2017-11-24T18:05:20.931Z,12.27
2017-11-24T18:07:51.667Z,8.73
2017-11-24T18:10:18.581Z,9.82
2017-11-24T18:12:46.418Z,8.23
2017-11-24T18:15:13.323Z,9.82
2017-11-24T18:17:40.256Z,12.00
2017-11-24T18:20:11.400Z,8.70
2017-11-24T18:22:39.096Z,8.15
2017-11-24T18:25:06.013Z,7.45
2017-11-24T18:27:32.949Z,7.62
2017-11-24T18:29:59.888Z,8.77
2017-11-24T18:32:32.192Z,8.65
2017-11-24T18:34:59.125Z,7.95
2017-11-24T18:37:29.171Z,7.97
2017-11-24T18:39:56.064Z,8.50
2017-11-24T18:42:23.738Z,7.78
2017-11-24T18:44:50.676Z,9.73
2017-11-24T18:47:18.401Z,10.00
2017-11-24T18:49:47.273Z,9.45
2017-11-24T18:52:17.022Z,8.05
2017-11-24T18:54:43.924Z,7.70
2017-11-24T18:57:10.839Z,8.07
2017-11-24T18:59:38.512Z,8.63
2017-11-24T19:02:05.441Z,9.55
2017-11-24T19:04:32.499Z,6.80
2017-11-24T19:06:59.426Z,8.68
2017-11-24T19:09:28.293Z,7.85
2017-11-24T19:11:55.260Z,8.38
2017-11-24T19:14:22.944Z,7.50
2017-11-24T19:16:49.873Z,7.70
2017-11-24T19:19:22.343Z,7.65
2017-11-24T19:21:50.228Z,7.50
2017-11-24T19:24:17.158Z,7.37
2017-11-24T19:26:45.054Z,7.60
2017-11-24T19:29:12.952Z,7.47
2017-11-24T19:31:39.882Z,7.75
2017-11-24T19:34:06.812Z,8.32
2017-11-24T19:36:33.758Z,9.00
2017-11-24T19:39:02.414Z,9.65
2017-11-24T19:41:33.074Z,11.43
2017-11-24T19:44:00.902Z,9.57
2017-11-24T19:46:29.605Z,10.35
2017-11-24T19:49:03.206Z,11.05
2017-11-24T19:51:30.128Z,11.43
2017-11-24T19:53:57.805Z,11.45
2017-11-24T19:56:25.497Z,11.73
2017-11-24T19:58:53.340Z,11.57
2017-11-24T20:01:21.175Z,11.05
2017-11-24T20:03:48.095Z,12.00
2017-11-24T20:06:15.036Z,11.05
2017-11-24T20:08:41.962Z,11.38
2017-11-24T20:11:08.911Z,11.75
2017-11-24T20:13:35.815Z,13.55
2017-11-24T20:16:03.540Z,11.40
2017-11-24T20:18:30.454Z,11.50
2017-11-24T20:20:57.414Z,12.80
2017-11-24T20:23:24.324Z,11.60
2017-11-24T20:25:52.167Z,11.20
2017-11-24T20:28:19.086Z,11.45
2017-11-24T20:30:46.014Z,12.02
2017-11-24T20:33:12.934Z,16.42
2017-11-24T20:35:41.772Z,13.93
2017-11-24T20:38:09.690Z,13.82
2017-11-24T20:40:37.515Z,15.10
2017-11-24T20:43:05.201Z,13.15
2017-11-24T20:45:33.895Z,18.73
2017-11-24T20:48:00.975Z,14.57
2017-11-24T20:50:27.898Z,17.08
2017-11-24T20:52:54.816Z,15.15
2017-11-24T20:55:22.501Z,15.48
2017-11-24T20:57:50.256Z,16.92
2017-11-24T21:00:17.174Z,20.92
2017-11-24T21:02:45.283Z,13.55
2017-11-24T21:05:12.201Z,15.05
2017-11-24T21:07:39.891Z,14.77
2017-11-24T21:10:06.819Z,14.77
2017-11-24T21:12:33.754Z,14.38
2017-11-24T21:15:02.637Z,15.70
2017-11-24T21:17:30.360Z,15.60
2017-11-24T21:19:58.270Z,17.55
2017-11-24T21:22:26.963Z,15.38
2017-11-24T21:24:53.887Z,18.10
2017-11-24T21:27:20.842Z,17.23
2017-11-24T21:29:49.541Z,16.37
2017-11-24T21:32:17.427Z,17.27
2017-11-24T21:34:44.402Z,17.20
2017-11-24T21:37:16.939Z,15.30
2017-11-24T21:39:43.866Z,17.12
2017-11-24T21:42:12.579Z,16.02
2017-11-24T21:44:40.409Z,15.48
2017-11-24T21:47:09.109Z,16.62
2017-11-24T21:49:38.066Z,16.40
2017-11-24T21:52:06.087Z,15.85
2017-11-24T21:54:33.003Z,16.25
2017-11-24T21:57:00.700Z,14.75
2017-11-24T21:59:28.544Z,15.95
2017-11-24T22:01:55.476Z,15.00
2017-11-24T22:04:24.430Z,16.20
2017-11-24T22:06:51.368Z,15.82
2017-11-24T22:09:19.006Z,13.50
2017-11-24T22:11:45.972Z,13.93
2017-11-24T22:14:12.878Z,15.05
2017-11-24T22:16:40.737Z,14.38
2017-11-24T22:19:08.413Z,13.55
2017-11-24T22:21:35.354Z,13.98
2017-11-24T22:24:02.336Z,13.45
2017-11-24T22:26:29.277Z,14.18
2017-11-24T22:28:56.191Z,13.85
2017-11-24T22:31:23.217Z,17.15
2017-11-24T22:33:50.126Z,12.60
2017-11-24T22:36:17.073Z,13.30
2017-11-24T22:38:45.080Z,13.68
2017-11-24T22:41:13.774Z,12.32
2017-11-24T22:43:40.765Z,12.65
2017-11-24T22:46:07.941Z,13.82
2017-11-24T22:48:34.997Z,13.40
2017-11-24T22:51:01.982Z,13.00
2017-11-24T22:53:28.910Z,14.45
2017-11-24T22:55:55.879Z,13.55
2017-11-24T22:58:22.782Z,12.37
2017-11-24T23:00:50.488Z,13.68
2017-11-24T23:03:17.420Z,14.13
2017-11-24T23:05:45.358Z,14.57
2017-11-24T23:08:14.961Z,14.20
2017-11-24T23:10:42.660Z,14.90
2017-11-24T23:13:09.569Z,15.75
2017-11-24T23:15:37.352Z,15.00
2017-11-24T23:18:06.027Z,15.63
2017-11-24T23:20:33.898Z,16.60
2017-11-24T23:23:01.752Z,15.82
2017-11-24T23:25:29.466Z,16.30
2017-11-24T23:27:56.380Z,15.55
2017-11-24T23:30:24.217Z,15.73
2017-11-24T23:32:51.139Z,16.00
2017-11-24T23:35:18.083Z,15.30
2017-11-24T23:37:45.008Z,15.80
2017-11-24T23:40:11.938Z,18.25
2017-11-24T23:42:43.477Z,15.63
2017-11-24T23:45:11.314Z,15.25
2017-11-24T23:47:38.988Z,15.82
2017-11-24T23:50:05.915Z,14.82
2017-11-24T23:52:33.610Z,16.80
2017-11-24T23:55:00.529Z,17.37
2017-11-24T23:57:28.207Z,16.50
2017-11-24T23:59:55.150Z,16.05
